sensor_id;sensor_type;location;lat;lon;timestamp;temperature;humidity
64718;DHT22;62506;46.070;14.492;2023-06-22T00:00:29;25.20;64.70
64718;DHT22;62506;46.070;14.492;2023-06-22T00:02:55;25.10;63.80
64718;DHT22;62506;46.070;14.492;2023-06-22T00:05:20;25.10;63.70
64718;DHT22;62506;46.070;14.492;2023-06-22T00:07:46;25.10;63.90
64718;DHT22;62506;46.070;14.492;2023-06-22T00:10:11;25.10;63.90
64718;DHT22;62506;46.070;14.492;2023-06-22T00:12:37;25.10;64.00
64718;DHT22;62506;46.070;14.492;2023-06-22T00:15:03;25.10;63.80
64718;DHT22;62506;46.070;14.492;2023-06-22T00:17:28;25.10;63.70
64718;DHT22;62506;46.070;14.492;2023-06-22T00:19:54;25.10;63.80
64718;DHT22;62506;46.070;14.492;2023-06-22T00:22:20;25.10;63.60
64718;DHT22;62506;46.070;14.492;2023-06-22T00:24:56;25.20;63.70
64718;DHT22;62506;46.070;14.492;2023-06-22T00:27:22;25.20;63.80
64718;DHT22;62506;46.070;14.492;2023-06-22T00:29:47;25.20;63.70
64718;DHT22;62506;46.070;14.492;2023-06-22T00:32:13;25.20;64.60
64718;DHT22;62506;46.070;14.492;2023-06-22T00:34:38;25.20;63.80
64718;DHT22;62506;46.070;14.492;2023-06-22T00:37:04;25.20;63.70
64718;DHT22;62506;46.070;14.492;2023-06-22T00:39:29;25.20;63.70
64718;DHT22;62506;46.070;14.492;2023-06-22T00:41:55;25.20;63.60
64718;DHT22;62506;46.070;14.492;2023-06-22T00:44:21;25.20;63.60
64718;DHT22;62506;46.070;14.492;2023-06-22T00:46:46;25.20;63.50
64718;DHT22;62506;46.070;14.492;2023-06-22T00:49:12;25.20;63.60
64718;DHT22;62506;46.070;14.492;2023-06-22T00:51:37;25.20;63.50
64718;DHT22;62506;46.070;14.492;2023-06-22T00:54:03;25.20;63.70
64718;DHT22;62506;46.070;14.492;2023-06-22T00:56:30;25.20;63.60
64718;DHT22;62506;46.070;14.492;2023-06-22T00:58:56;25.20;63.60
64718;DHT22;62506;46.070;14.492;2023-06-22T01:01:23;25.20;63.60
64718;DHT22;62506;46.070;14.492;2023-06-22T01:03:48;25.20;63.60
64718;DHT22;62506;46.070;14.492;2023-06-22T01:06:17;25.20;63.50
64718;DHT22;62506;46.070;14.492;2023-06-22T01:08:46;25.20;63.70
64718;DHT22;62506;46.070;14.492;2023-06-22T01:11:18;25.10;63.50
64718;DHT22;62506;46.070;14.492;2023-06-22T01:16:13;25.10;63.50
64718;DHT22;62506;46.070;14.492;2023-06-22T01:18:40;25.10;63.60
64718;DHT22;62506;46.070;14.492;2023-06-22T01:21:06;25.10;63.60
64718;DHT22;62506;46.070;14.492;2023-06-22T01:26:41;25.10;63.60
64718;DHT22;62506;46.070;14.492;2023-06-22T01:29:04;25.10;63.60
64718;DHT22;62506;46.070;14.492;2023-06-22T01:31:30;25.10;63.60
64718;DHT22;62506;46.070;14.492;2023-06-22T01:34:00;25.10;63.70
64718;DHT22;62506;46.070;14.492;2023-06-22T01:36:26;25.10;63.80
64718;DHT22;62506;46.070;14.492;2023-06-22T01:38:52;25.10;63.80
64718;DHT22;62506;46.070;14.492;2023-06-22T01:41:19;25.00;63.80
64718;DHT22;62506;46.070;14.492;2023-06-22T01:43:44;25.10;63.80
64718;DHT22;62506;46.070;14.492;2023-06-22T01:46:10;25.00;63.80
64718;DHT22;62506;46.070;14.492;2023-06-22T01:48:36;25.00;63.80
64718;DHT22;62506;46.070;14.492;2023-06-22T01:51:03;25.00;64.00
64718;DHT22;62506;46.070;14.492;2023-06-22T01:53:29;25.00;63.80
64718;DHT22;62506;46.070;14.492;2023-06-22T01:55:54;25.00;63.80
64718;DHT22;62506;46.070;14.492;2023-06-22T01:58:21;25.10;63.90
64718;DHT22;62506;46.070;14.492;2023-06-22T02:00:49;25.00;63.80
64718;DHT22;62506;46.070;14.492;2023-06-22T02:03:19;25.00;63.70
64718;DHT22;62506;46.070;14.492;2023-06-22T02:05:47;25.00;63.50
64718;DHT22;62506;46.070;14.492;2023-06-22T02:08:13;25.10;63.50
64718;DHT22;62506;46.070;14.492;2023-06-22T02:10:43;25.10;63.60
64718;DHT22;62506;46.070;14.492;2023-06-22T02:13:09;25.10;63.50
64718;DHT22;62506;46.070;14.492;2023-06-22T02:15:35;25.10;63.50
64718;DHT22;62506;46.070;14.492;2023-06-22T02:18:01;25.10;63.50
64718;DHT22;62506;46.070;14.492;2023-06-22T02:20:27;25.10;63.50
64718;DHT22;62506;46.070;14.492;2023-06-22T02:22:52;25.10;63.60
64718;DHT22;62506;46.070;14.492;2023-06-22T02:25:18;25.10;63.50
64718;DHT22;62506;46.070;14.492;2023-06-22T02:27:44;25.10;63.70
64718;DHT22;62506;46.070;14.492;2023-06-22T02:30:10;25.10;63.80
64718;DHT22;62506;46.070;14.492;2023-06-22T02:32:36;25.00;63.60
64718;DHT22;62506;46.070;14.492;2023-06-22T02:35:01;25.00;63.70
64718;DHT22;62506;46.070;14.492;2023-06-22T02:37:30;25.00;63.50
64718;DHT22;62506;46.070;14.492;2023-06-22T02:39:55;25.00;63.60
64718;DHT22;62506;46.070;14.492;2023-06-22T02:42:21;25.00;63.50
64718;DHT22;62506;46.070;14.492;2023-06-22T02:44:47;25.00;63.60
64718;DHT22;62506;46.070;14.492;2023-06-22T02:47:12;25.00;63.70
64718;DHT22;62506;46.070;14.492;2023-06-22T02:49:38;25.00;63.70
64718;DHT22;62506;46.070;14.492;2023-06-22T02:52:03;25.10;63.70
64718;DHT22;62506;46.070;14.492;2023-06-22T02:54:29;25.10;63.90
64718;DHT22;62506;46.070;14.492;2023-06-22T02:56:54;25.10;64.00
64718;DHT22;62506;46.070;14.492;2023-06-22T02:59:20;25.10;63.70
64718;DHT22;62506;46.070;14.492;2023-06-22T03:01:51;25.10;63.60
64718;DHT22;62506;46.070;14.492;2023-06-22T03:04:17;25.10;63.70
64718;DHT22;62506;46.070;14.492;2023-06-22T03:06:43;25.10;63.70
64718;DHT22;62506;46.070;14.492;2023-06-22T03:09:08;25.10;63.50
64718;DHT22;62506;46.070;14.492;2023-06-22T03:11:34;25.10;63.80
64718;DHT22;62506;46.070;14.492;2023-06-22T03:14:00;25.10;63.50
64718;DHT22;62506;46.070;14.492;2023-06-22T03:16:26;25.10;63.50
64718;DHT22;62506;46.070;14.492;2023-06-22T03:18:51;25.10;63.40
64718;DHT22;62506;46.070;14.492;2023-06-22T03:21:19;25.10;63.40
64718;DHT22;62506;46.070;14.492;2023-06-22T03:23:44;25.10;63.40
64718;DHT22;62506;46.070;14.492;2023-06-22T03:26:10;25.10;63.40
64718;DHT22;62506;46.070;14.492;2023-06-22T03:28:36;25.10;63.30
64718;DHT22;62506;46.070;14.492;2023-06-22T03:31:02;25.10;63.30
64718;DHT22;62506;46.070;14.492;2023-06-22T03:33:28;25.10;63.30
64718;DHT22;62506;46.070;14.492;2023-06-22T03:35:54;25.10;63.20
64718;DHT22;62506;46.070;14.492;2023-06-22T03:38:19;25.10;63.30
64718;DHT22;62506;46.070;14.492;2023-06-22T03:40:45;25.10;63.20
64718;DHT22;62506;46.070;14.492;2023-06-22T03:43:10;25.10;63.20
64718;DHT22;62506;46.070;14.492;2023-06-22T03:45:36;25.10;63.20
64718;DHT22;62506;46.070;14.492;2023-06-22T03:48:01;25.10;63.20
64718;DHT22;62506;46.070;14.492;2023-06-22T03:50:27;25.10;63.20
64718;DHT22;62506;46.070;14.492;2023-06-22T03:52:52;25.10;63.20
64718;DHT22;62506;46.070;14.492;2023-06-22T03:55:21;25.10;63.30
64718;DHT22;62506;46.070;14.492;2023-06-22T03:57:47;25.10;63.30
64718;DHT22;62506;46.070;14.492;2023-06-22T04:00:12;25.10;63.30
64718;DHT22;62506;46.070;14.492;2023-06-22T04:02:38;25.10;63.30
64718;DHT22;62506;46.070;14.492;2023-06-22T04:05:04;25.10;62.80
64718;DHT22;62506;46.070;14.492;2023-06-22T04:07:29;24.90;61.20
64718;DHT22;62506;46.070;14.492;2023-06-22T04:09:55;24.80;61.30
64718;DHT22;62506;46.070;14.492;2023-06-22T04:12:20;24.70;61.30
64718;DHT22;62506;46.070;14.492;2023-06-22T04:14:46;24.70;61.60
64718;DHT22;62506;46.070;14.492;2023-06-22T04:17:11;24.60;61.70
64718;DHT22;62506;46.070;14.492;2023-06-22T04:19:39;24.50;62.10
64718;DHT22;62506;46.070;14.492;2023-06-22T04:22:05;24.40;62.40
64718;DHT22;62506;46.070;14.492;2023-06-22T04:24:32;24.40;62.50
64718;DHT22;62506;46.070;14.492;2023-06-22T04:26:58;24.40;62.40
64718;DHT22;62506;46.070;14.492;2023-06-22T04:29:25;24.40;62.60
64718;DHT22;62506;46.070;14.492;2023-06-22T04:31:54;24.40;63.00
64718;DHT22;62506;46.070;14.492;2023-06-22T04:34:21;24.40;62.70
64718;DHT22;62506;46.070;14.492;2023-06-22T04:36:46;24.40;62.70
64718;DHT22;62506;46.070;14.492;2023-06-22T04:39:12;24.50;62.50
64718;DHT22;62506;46.070;14.492;2023-06-22T04:41:38;24.50;62.60
64718;DHT22;62506;46.070;14.492;2023-06-22T04:44:16;24.40;62.90
64718;DHT22;62506;46.070;14.492;2023-06-22T04:46:55;24.40;62.80
64718;DHT22;62506;46.070;14.492;2023-06-22T04:49:29;24.40;62.80
64718;DHT22;62506;46.070;14.492;2023-06-22T04:51:58;24.50;62.80
64718;DHT22;62506;46.070;14.492;2023-06-22T04:54:24;24.50;62.70
64718;DHT22;62506;46.070;14.492;2023-06-22T04:56:49;24.50;63.00
64718;DHT22;62506;46.070;14.492;2023-06-22T04:59:25;24.50;62.50
64718;DHT22;62506;46.070;14.492;2023-06-22T05:01:56;24.50;62.50
64718;DHT22;62506;46.070;14.492;2023-06-22T05:04:22;24.50;62.20
64718;DHT22;62506;46.070;14.492;2023-06-22T05:06:51;24.60;62.10
64718;DHT22;62506;46.070;14.492;2023-06-22T05:09:16;24.50;62.20
64718;DHT22;62506;46.070;14.492;2023-06-22T05:11:43;24.60;62.70
64718;DHT22;62506;46.070;14.492;2023-06-22T05:14:08;24.60;62.80
64718;DHT22;62506;46.070;14.492;2023-06-22T05:16:34;24.70;62.70
64718;DHT22;62506;46.070;14.492;2023-06-22T05:18:59;24.70;62.80
64718;DHT22;62506;46.070;14.492;2023-06-22T05:21:26;24.70;62.80
64718;DHT22;62506;46.070;14.492;2023-06-22T05:23:52;24.80;62.80
64718;DHT22;62506;46.070;14.492;2023-06-22T05:26:18;24.80;63.00
64718;DHT22;62506;46.070;14.492;2023-06-22T05:28:44;24.80;62.90
64718;DHT22;62506;46.070;14.492;2023-06-22T05:31:12;24.80;63.10
64718;DHT22;62506;46.070;14.492;2023-06-22T05:33:38;24.80;63.30
64718;DHT22;62506;46.070;14.492;2023-06-22T05:36:04;24.80;63.60
64718;DHT22;62506;46.070;14.492;2023-06-22T05:38:29;24.80;63.60
64718;DHT22;62506;46.070;14.492;2023-06-22T05:40:55;24.80;64.30
64718;DHT22;62506;46.070;14.492;2023-06-22T05:43:20;24.80;63.90
64718;DHT22;62506;46.070;14.492;2023-06-22T05:45:46;24.80;63.90
64718;DHT22;62506;46.070;14.492;2023-06-22T05:48:11;24.80;63.80
64718;DHT22;62506;46.070;14.492;2023-06-22T05:50:37;24.80;63.60
64718;DHT22;62506;46.070;14.492;2023-06-22T05:53:02;24.90;63.30
64718;DHT22;62506;46.070;14.492;2023-06-22T05:55:28;24.90;63.10
64718;DHT22;62506;46.070;14.492;2023-06-22T05:57:53;24.90;63.10
64718;DHT22;62506;46.070;14.492;2023-06-22T06:00:19;25.00;63.00
64718;DHT22;62506;46.070;14.492;2023-06-22T06:02:45;25.00;62.70
64718;DHT22;62506;46.070;14.492;2023-06-22T06:05:11;25.00;62.60
64718;DHT22;62506;46.070;14.492;2023-06-22T06:07:39;25.00;62.70
64718;DHT22;62506;46.070;14.492;2023-06-22T06:10:04;25.00;62.90
64718;DHT22;62506;46.070;14.492;2023-06-22T06:12:31;25.00;62.90
64718;DHT22;62506;46.070;14.492;2023-06-22T06:14:57;25.00;62.80
64718;DHT22;62506;46.070;14.492;2023-06-22T06:17:22;25.00;62.70
64718;DHT22;62506;46.070;14.492;2023-06-22T06:19:48;25.00;62.60
64718;DHT22;62506;46.070;14.492;2023-06-22T06:22:13;25.00;62.50
64718;DHT22;62506;46.070;14.492;2023-06-22T06:24:39;25.00;62.60
64718;DHT22;62506;46.070;14.492;2023-06-22T06:27:04;25.00;62.50
64718;DHT22;62506;46.070;14.492;2023-06-22T06:29:31;25.00;62.60
64718;DHT22;62506;46.070;14.492;2023-06-22T06:31:56;25.00;62.70
64718;DHT22;62506;46.070;14.492;2023-06-22T06:34:22;25.00;62.70
64718;DHT22;62506;46.070;14.492;2023-06-22T06:36:48;25.00;62.80
64718;DHT22;62506;46.070;14.492;2023-06-22T06:39:13;25.00;62.70
64718;DHT22;62506;46.070;14.492;2023-06-22T06:41:39;25.00;62.70
64718;DHT22;62506;46.070;14.492;2023-06-22T06:44:04;25.00;62.70
64718;DHT22;62506;46.070;14.492;2023-06-22T06:46:30;25.00;62.70
64718;DHT22;62506;46.070;14.492;2023-06-22T06:48:55;25.00;62.90
64718;DHT22;62506;46.070;14.492;2023-06-22T06:51:21;25.00;63.00
64718;DHT22;62506;46.070;14.492;2023-06-22T06:53:46;25.00;63.20
64718;DHT22;62506;46.070;14.492;2023-06-22T06:56:12;25.00;63.30
64718;DHT22;62506;46.070;14.492;2023-06-22T06:58:40;25.00;63.20
64718;DHT22;62506;46.070;14.492;2023-06-22T07:01:05;25.00;63.20
64718;DHT22;62506;46.070;14.492;2023-06-22T07:03:31;25.00;63.20
64718;DHT22;62506;46.070;14.492;2023-06-22T07:05:58;25.10;63.40
64718;DHT22;62506;46.070;14.492;2023-06-22T07:08:24;25.00;63.30
64718;DHT22;62506;46.070;14.492;2023-06-22T07:10:49;25.10;63.40
64718;DHT22;62506;46.070;14.492;2023-06-22T07:13:15;25.10;63.40
64718;DHT22;62506;46.070;14.492;2023-06-22T07:15:40;25.10;63.50
64718;DHT22;62506;46.070;14.492;2023-06-22T07:18:06;25.10;63.50
64718;DHT22;62506;46.070;14.492;2023-06-22T07:20:31;25.10;63.50
64718;DHT22;62506;46.070;14.492;2023-06-22T07:22:57;25.10;63.50
64718;DHT22;62506;46.070;14.492;2023-06-22T07:25:23;25.10;63.50
64718;DHT22;62506;46.070;14.492;2023-06-22T07:27:59;25.10;63.60
64718;DHT22;62506;46.070;14.492;2023-06-22T07:30:25;25.10;63.60
64718;DHT22;62506;46.070;14.492;2023-06-22T07:32:50;25.10;63.70
64718;DHT22;62506;46.070;14.492;2023-06-22T07:35:16;25.10;63.70
64718;DHT22;62506;46.070;14.492;2023-06-22T07:37:42;25.10;63.10
64718;DHT22;62506;46.070;14.492;2023-06-22T07:40:07;25.10;63.50
64718;DHT22;62506;46.070;14.492;2023-06-22T07:42:33;25.10;63.50
64718;DHT22;62506;46.070;14.492;2023-06-22T07:44:59;25.20;63.50
64718;DHT22;62506;46.070;14.492;2023-06-22T07:47:25;25.20;63.40
64718;DHT22;62506;46.070;14.492;2023-06-22T07:49:53;25.20;63.30
64718;DHT22;62506;46.070;14.492;2023-06-22T07:52:20;25.30;63.50
64718;DHT22;62506;46.070;14.492;2023-06-22T07:54:46;25.30;63.40
64718;DHT22;62506;46.070;14.492;2023-06-22T07:57:12;25.20;63.30
64718;DHT22;62506;46.070;14.492;2023-06-22T07:59:37;25.20;63.70
64718;DHT22;62506;46.070;14.492;2023-06-22T08:02:03;25.20;63.50
64718;DHT22;62506;46.070;14.492;2023-06-22T08:04:29;25.30;63.60
64718;DHT22;62506;46.070;14.492;2023-06-22T08:06:56;25.30;63.70
64718;DHT22;62506;46.070;14.492;2023-06-22T08:09:21;25.20;63.50
64718;DHT22;62506;46.070;14.492;2023-06-22T08:11:47;25.20;63.50
64718;DHT22;62506;46.070;14.492;2023-06-22T08:14:14;25.20;63.20
64718;DHT22;62506;46.070;14.492;2023-06-22T08:16:40;25.20;63.50
64718;DHT22;62506;46.070;14.492;2023-06-22T08:19:06;25.20;63.50
64718;DHT22;62506;46.070;14.492;2023-06-22T08:21:32;25.20;63.60
64718;DHT22;62506;46.070;14.492;2023-06-22T08:23:57;25.20;63.70
64718;DHT22;62506;46.070;14.492;2023-06-22T08:26:23;25.20;63.60
64718;DHT22;62506;46.070;14.492;2023-06-22T08:28:48;25.20;63.70
64718;DHT22;62506;46.070;14.492;2023-06-22T08:31:14;25.30;63.70
64718;DHT22;62506;46.070;14.492;2023-06-22T08:33:40;25.30;63.60
64718;DHT22;62506;46.070;14.492;2023-06-22T08:36:06;25.30;63.50
64718;DHT22;62506;46.070;14.492;2023-06-22T08:38:31;25.30;63.40
64718;DHT22;62506;46.070;14.492;2023-06-22T08:40:57;25.30;63.60
64718;DHT22;62506;46.070;14.492;2023-06-22T08:43:23;25.30;63.30
64718;DHT22;62506;46.070;14.492;2023-06-22T08:45:48;25.40;63.40
64718;DHT22;62506;46.070;14.492;2023-06-22T08:48:14;25.30;63.20
64718;DHT22;62506;46.070;14.492;2023-06-22T08:50:39;25.30;63.50
64718;DHT22;62506;46.070;14.492;2023-06-22T08:53:08;25.30;63.60
64718;DHT22;62506;46.070;14.492;2023-06-22T08:55:33;25.30;63.90
64718;DHT22;62506;46.070;14.492;2023-06-22T08:57:59;25.20;63.80
64718;DHT22;62506;46.070;14.492;2023-06-22T09:00:24;25.20;64.00
64718;DHT22;62506;46.070;14.492;2023-06-22T09:02:50;25.20;63.90
64718;DHT22;62506;46.070;14.492;2023-06-22T09:05:15;25.20;63.90
64718;DHT22;62506;46.070;14.492;2023-06-22T09:07:41;25.20;64.00
64718;DHT22;62506;46.070;14.492;2023-06-22T09:10:07;25.20;64.00
64718;DHT22;62506;46.070;14.492;2023-06-22T09:12:33;25.20;64.10
64718;DHT22;62506;46.070;14.492;2023-06-22T09:14:59;25.20;64.00
64718;DHT22;62506;46.070;14.492;2023-06-22T09:17:28;25.20;63.90
64718;DHT22;62506;46.070;14.492;2023-06-22T09:19:54;25.20;63.90
64718;DHT22;62506;46.070;14.492;2023-06-22T09:22:19;25.20;63.90
64718;DHT22;62506;46.070;14.492;2023-06-22T09:24:45;25.20;64.00
64718;DHT22;62506;46.070;14.492;2023-06-22T09:27:10;25.20;64.00
64718;DHT22;62506;46.070;14.492;2023-06-22T09:29:36;25.20;64.00
64718;DHT22;62506;46.070;14.492;2023-06-22T09:32:01;25.20;64.00
64718;DHT22;62506;46.070;14.492;2023-06-22T09:34:27;25.20;64.90
64718;DHT22;62506;46.070;14.492;2023-06-22T09:36:53;25.30;64.00
64718;DHT22;62506;46.070;14.492;2023-06-22T09:39:18;25.30;64.00
64718;DHT22;62506;46.070;14.492;2023-06-22T09:41:44;25.30;64.00
64718;DHT22;62506;46.070;14.492;2023-06-22T09:44:09;25.30;64.00
64718;DHT22;62506;46.070;14.492;2023-06-22T09:46:35;25.30;64.00
64718;DHT22;62506;46.070;14.492;2023-06-22T09:49:00;25.30;64.80
64718;DHT22;62506;46.070;14.492;2023-06-22T09:51:26;25.30;63.90
64718;DHT22;62506;46.070;14.492;2023-06-22T09:53:52;25.30;64.00
64718;DHT22;62506;46.070;14.492;2023-06-22T09:56:19;25.30;64.00
64718;DHT22;62506;46.070;14.492;2023-06-22T09:58:45;25.30;64.00
64718;DHT22;62506;46.070;14.492;2023-06-22T10:01:11;25.30;64.00
64718;DHT22;62506;46.070;14.492;2023-06-22T10:03:37;25.30;64.00
64718;DHT22;62506;46.070;14.492;2023-06-22T10:06:03;25.30;64.20
64718;DHT22;62506;46.070;14.492;2023-06-22T10:08:28;25.30;64.20
64718;DHT22;62506;46.070;14.492;2023-06-22T10:10:54;25.30;64.20
64718;DHT22;62506;46.070;14.492;2023-06-22T10:13:20;25.30;64.60
64718;DHT22;62506;46.070;14.492;2023-06-22T10:15:45;25.30;64.50
64718;DHT22;62506;46.070;14.492;2023-06-22T10:18:15;25.30;64.20
64718;DHT22;62506;46.070;14.492;2023-06-22T10:20:41;25.40;64.40
64718;DHT22;62506;46.070;14.492;2023-06-22T10:23:07;25.40;64.60
64718;DHT22;62506;46.070;14.492;2023-06-22T10:25:32;25.40;64.30
64718;DHT22;62506;46.070;14.492;2023-06-22T10:27:58;25.40;64.30
64718;DHT22;62506;46.070;14.492;2023-06-22T10:30:23;25.40;64.10
64718;DHT22;62506;46.070;14.492;2023-06-22T10:32:49;25.40;64.30
64718;DHT22;62506;46.070;14.492;2023-06-22T10:35:14;25.40;64.10
64718;DHT22;62506;46.070;14.492;2023-06-22T10:37:42;25.40;64.10
64718;DHT22;62506;46.070;14.492;2023-06-22T10:40:08;25.40;64.10
64718;DHT22;62506;46.070;14.492;2023-06-22T10:42:34;25.40;64.20
64718;DHT22;62506;46.070;14.492;2023-06-22T10:44:59;25.40;64.20
64718;DHT22;62506;46.070;14.492;2023-06-22T10:47:25;25.40;64.10
64718;DHT22;62506;46.070;14.492;2023-06-22T10:49:50;25.40;64.10
64718;DHT22;62506;46.070;14.492;2023-06-22T10:52:19;25.40;64.10
64718;DHT22;62506;46.070;14.492;2023-06-22T10:54:44;25.40;64.10
64718;DHT22;62506;46.070;14.492;2023-06-22T10:57:10;25.40;64.20
64718;DHT22;62506;46.070;14.492;2023-06-22T10:59:35;25.40;64.00
64718;DHT22;62506;46.070;14.492;2023-06-22T11:02:01;25.40;64.30
64718;DHT22;62506;46.070;14.492;2023-06-22T11:04:27;25.40;64.10
64718;DHT22;62506;46.070;14.492;2023-06-22T11:06:53;25.40;63.80
64718;DHT22;62506;46.070;14.492;2023-06-22T11:09:18;25.50;63.90
64718;DHT22;62506;46.070;14.492;2023-06-22T11:11:46;25.50;64.10
64718;DHT22;62506;46.070;14.492;2023-06-22T11:14:12;25.40;64.10
64718;DHT22;62506;46.070;14.492;2023-06-22T11:16:38;25.50;64.20
64718;DHT22;62506;46.070;14.492;2023-06-22T11:19:04;25.50;64.30
64718;DHT22;62506;46.070;14.492;2023-06-22T11:21:30;25.50;64.40
64718;DHT22;62506;46.070;14.492;2023-06-22T11:23:55;25.50;64.10
64718;DHT22;62506;46.070;14.492;2023-06-22T11:26:21;25.50;64.10
64718;DHT22;62506;46.070;14.492;2023-06-22T11:28:46;25.50;64.30
64718;DHT22;62506;46.070;14.492;2023-06-22T11:31:12;25.50;64.20
64718;DHT22;62506;46.070;14.492;2023-06-22T11:33:37;25.50;64.30
64718;DHT22;62506;46.070;14.492;2023-06-22T11:36:03;25.50;64.10
64718;DHT22;62506;46.070;14.492;2023-06-22T11:38:28;25.50;64.30
64718;DHT22;62506;46.070;14.492;2023-06-22T11:41:03;25.50;64.30
64718;DHT22;62506;46.070;14.492;2023-06-22T11:43:28;25.50;64.30
64718;DHT22;62506;46.070;14.492;2023-06-22T11:45:54;25.50;65.10
64718;DHT22;62506;46.070;14.492;2023-06-22T11:48:21;25.50;64.10
64718;DHT22;62506;46.070;14.492;2023-06-22T11:50:46;25.50;64.30
64718;DHT22;62506;46.070;14.492;2023-06-22T11:53:12;25.50;64.10
64718;DHT22;62506;46.070;14.492;2023-06-22T11:55:41;25.50;64.10
64718;DHT22;62506;46.070;14.492;2023-06-22T11:58:07;25.50;64.10
64718;DHT22;62506;46.070;14.492;2023-06-22T12:00:33;25.50;64.00
64718;DHT22;62506;46.070;14.492;2023-06-22T12:02:59;25.60;64.10
64718;DHT22;62506;46.070;14.492;2023-06-22T12:05:24;25.60;64.10
64718;DHT22;62506;46.070;14.492;2023-06-22T12:18:32;25.60;64.00
64718;DHT22;62506;46.070;14.492;2023-06-22T12:20:58;25.70;63.60
64718;DHT22;62506;46.070;14.492;2023-06-22T12:23:23;25.70;63.70
64718;DHT22;62506;46.070;14.492;2023-06-22T12:25:49;25.70;63.50
64718;DHT22;62506;46.070;14.492;2023-06-22T12:28:14;25.80;63.70
64718;DHT22;62506;46.070;14.492;2023-06-22T12:30:40;25.80;63.40
64718;DHT22;62506;46.070;14.492;2023-06-22T12:33:06;25.80;63.50
64718;DHT22;62506;46.070;14.492;2023-06-22T12:35:31;25.80;63.50
64718;DHT22;62506;46.070;14.492;2023-06-22T12:37:57;25.80;63.40
64718;DHT22;62506;46.070;14.492;2023-06-22T12:40:22;25.80;63.40
64718;DHT22;62506;46.070;14.492;2023-06-22T12:42:48;25.80;63.50
64718;DHT22;62506;46.070;14.492;2023-06-22T12:45:14;25.80;63.50
64718;DHT22;62506;46.070;14.492;2023-06-22T12:47:40;25.80;63.50
64718;DHT22;62506;46.070;14.492;2023-06-22T12:50:06;25.80;63.60
64718;DHT22;62506;46.070;14.492;2023-06-22T12:52:31;25.80;63.70
64718;DHT22;62506;46.070;14.492;2023-06-22T12:55:00;25.70;63.80
64718;DHT22;62506;46.070;14.492;2023-06-22T12:57:25;25.80;63.80
64718;DHT22;62506;46.070;14.492;2023-06-22T12:59:51;25.80;64.00
64718;DHT22;62506;46.070;14.492;2023-06-22T13:02:17;25.80;64.00
64718;DHT22;62506;46.070;14.492;2023-06-22T13:04:42;25.80;63.90
64718;DHT22;62506;46.070;14.492;2023-06-22T13:07:15;25.80;64.00
64718;DHT22;62506;46.070;14.492;2023-06-22T13:09:41;25.80;64.40
64718;DHT22;62506;46.070;14.492;2023-06-22T13:12:07;25.80;64.20
64718;DHT22;62506;46.070;14.492;2023-06-22T13:14:32;25.80;64.30
64718;DHT22;62506;46.070;14.492;2023-06-22T13:16:58;25.80;64.40
64718;DHT22;62506;46.070;14.492;2023-06-22T13:19:23;25.80;64.30
64718;DHT22;62506;46.070;14.492;2023-06-22T13:21:49;25.70;64.60
64718;DHT22;62506;46.070;14.492;2023-06-22T13:24:14;25.80;64.90
64718;DHT22;62506;46.070;14.492;2023-06-22T13:26:40;25.80;65.00
64718;DHT22;62506;46.070;14.492;2023-06-22T13:29:05;25.70;64.90
64718;DHT22;62506;46.070;14.492;2023-06-22T13:31:31;25.70;64.90
64718;DHT22;62506;46.070;14.492;2023-06-22T13:33:56;25.80;65.10
64718;DHT22;62506;46.070;14.492;2023-06-22T13:36:22;25.70;65.00
64718;DHT22;62506;46.070;14.492;2023-06-22T13:38:48;25.70;65.20
64718;DHT22;62506;46.070;14.492;2023-06-22T13:41:14;25.70;65.30
64718;DHT22;62506;46.070;14.492;2023-06-22T13:43:39;25.70;65.20
64718;DHT22;62506;46.070;14.492;2023-06-22T13:46:05;25.70;65.20
64718;DHT22;62506;46.070;14.492;2023-06-22T13:48:30;25.70;65.20
64718;DHT22;62506;46.070;14.492;2023-06-22T13:50:57;25.70;65.30
64718;DHT22;62506;46.070;14.492;2023-06-22T13:53:24;25.70;65.30
64718;DHT22;62506;46.070;14.492;2023-06-22T13:55:49;25.70;65.30
64718;DHT22;62506;46.070;14.492;2023-06-22T13:58:15;25.60;65.10
64718;DHT22;62506;46.070;14.492;2023-06-22T14:00:41;25.60;65.50
64718;DHT22;62506;46.070;14.492;2023-06-22T14:03:06;25.70;65.60
64718;DHT22;62506;46.070;14.492;2023-06-22T14:05:32;25.80;65.70
64718;DHT22;62506;46.070;14.492;2023-06-22T14:07:57;25.80;65.50
64718;DHT22;62506;46.070;14.492;2023-06-22T14:10:23;25.80;65.90
64718;DHT22;62506;46.070;14.492;2023-06-22T14:12:48;25.80;65.90
64718;DHT22;62506;46.070;14.492;2023-06-22T14:15:14;25.80;66.30
64718;DHT22;62506;46.070;14.492;2023-06-22T14:17:39;25.80;66.00
64718;DHT22;62506;46.070;14.492;2023-06-22T14:20:05;25.80;66.00
64718;DHT22;62506;46.070;14.492;2023-06-22T14:22:32;25.80;66.00
64718;DHT22;62506;46.070;14.492;2023-06-22T14:24:58;25.80;66.10
64718;DHT22;62506;46.070;14.492;2023-06-22T14:27:24;25.90;66.40
64718;DHT22;62506;46.070;14.492;2023-06-22T14:29:49;25.90;66.30
64718;DHT22;62506;46.070;14.492;2023-06-22T14:32:15;25.90;66.30
64718;DHT22;62506;46.070;14.492;2023-06-22T14:34:40;25.90;66.00
64718;DHT22;62506;46.070;14.492;2023-06-22T14:37:06;25.90;65.90
64718;DHT22;62506;46.070;14.492;2023-06-22T14:39:32;26.00;65.90
64718;DHT22;62506;46.070;14.492;2023-06-22T14:41:58;26.00;66.10
64718;DHT22;62506;46.070;14.492;2023-06-22T14:44:23;26.00;66.00
64718;DHT22;62506;46.070;14.492;2023-06-22T14:46:49;26.00;66.10
64718;DHT22;62506;46.070;14.492;2023-06-22T14:49:14;26.00;66.40
64718;DHT22;62506;46.070;14.492;2023-06-22T14:51:40;26.10;66.40
64718;DHT22;62506;46.070;14.492;2023-06-22T14:54:05;26.10;66.60
64718;DHT22;62506;46.070;14.492;2023-06-22T14:56:31;26.10;66.60
64718;DHT22;62506;46.070;14.492;2023-06-22T14:58:56;26.20;67.00
64718;DHT22;62506;46.070;14.492;2023-06-22T15:01:22;26.30;67.60
64718;DHT22;62506;46.070;14.492;2023-06-22T15:03:47;26.30;67.60
64718;DHT22;62506;46.070;14.492;2023-06-22T15:06:13;26.30;67.10
64718;DHT22;62506;46.070;14.492;2023-06-22T15:08:39;26.40;67.30
64718;DHT22;62506;46.070;14.492;2023-06-22T15:11:05;26.50;67.00
64718;DHT22;62506;46.070;14.492;2023-06-22T15:13:31;26.50;67.40
64718;DHT22;62506;46.070;14.492;2023-06-22T15:15:59;26.60;67.40
64718;DHT22;62506;46.070;14.492;2023-06-22T15:18:24;26.60;68.80
64718;DHT22;62506;46.070;14.492;2023-06-22T15:20:50;26.70;68.80
64718;DHT22;62506;46.070;14.492;2023-06-22T15:23:15;26.90;69.70